createdAt,value
2022-12-28T00:02:18.641Z,86.76
2022-12-28T00:04:47.150Z,86.78
2022-12-28T00:07:17.266Z,86.78
2022-12-28T00:09:44.884Z,86.85
2022-12-28T00:12:13.048Z,86.86
2022-12-28T00:14:40.957Z,86.82
2022-12-28T00:17:09.130Z,86.95
2022-12-28T00:19:39.452Z,86.94
2022-12-28T00:22:10.564Z,86.93
2022-12-28T00:24:38.326Z,87.00
2022-12-28T00:27:06.344Z,86.79
2022-12-28T00:29:37.253Z,86.89
2022-12-28T00:32:05.340Z,86.90
2022-12-28T00:34:33.552Z,87.07
2022-12-28T00:37:08.528Z,86.97
2022-12-28T00:39:44.689Z,86.73
2022-12-28T00:42:16.073Z,86.73
2022-12-28T00:44:45.962Z,86.84
2022-12-28T00:47:17.015Z,86.67
2022-12-28T00:49:44.725Z,86.78
2022-12-28T00:52:15.915Z,86.56
2022-12-28T00:54:43.641Z,86.76
2022-12-28T00:57:14.277Z,86.62
2022-12-28T00:59:42.244Z,86.63
2022-12-28T01:02:10.400Z,86.56
2022-12-28T01:04:38.129Z,86.68
2022-12-28T01:07:07.521Z,86.55
2022-12-28T01:09:37.231Z,86.48
2022-12-28T01:12:07.412Z,86.68
2022-12-28T01:14:35.195Z,86.34
2022-12-28T01:17:02.955Z,86.34
2022-12-28T01:19:31.961Z,86.61
2022-12-28T01:22:02.800Z,86.62
2022-12-28T01:24:32.467Z,86.68
2022-12-28T01:27:02.077Z,86.44
2022-12-28T01:29:33.364Z,86.65
2022-12-28T01:32:02.045Z,86.75
2022-12-28T01:34:30.788Z,86.33
2022-12-28T01:37:01.803Z,86.54
2022-12-28T01:39:30.051Z,86.79
2022-12-28T01:41:58.346Z,86.49
2022-12-28T01:44:43.549Z,86.52
2022-12-28T01:47:15.112Z,86.73
2022-12-28T01:50:32.017Z,86.81
2022-12-28T01:53:05.857Z,86.36
2022-12-28T01:55:36.628Z,86.64
2022-12-28T01:58:13.014Z,86.59
2022-12-28T02:00:43.258Z,86.57
2022-12-28T02:03:16.917Z,86.76
2022-12-28T02:05:50.908Z,86.68
2022-12-28T02:08:26.385Z,86.92
2022-12-28T02:10:55.301Z,86.66
2022-12-28T02:13:24.670Z,86.80
2022-12-28T02:15:53.627Z,86.66
2022-12-28T02:18:22.084Z,86.84
2022-12-28T02:21:20.422Z,86.78
2022-12-28T02:24:31.769Z,87.08
2022-12-28T02:27:23.714Z,87.08
2022-12-28T02:30:12.304Z,86.90
2022-12-28T02:32:58.896Z,87.15
2022-12-28T02:35:48.294Z,87.27
2022-12-28T02:38:26.125Z,87.21
2022-12-28T02:41:06.591Z,87.04
2022-12-28T02:43:35.614Z,87.21
2022-12-28T02:46:34.871Z,87.13
2022-12-28T02:50:06.549Z,87.01
2022-12-28T02:52:42.628Z,87.30
2022-12-28T02:55:56.701Z,87.25
2022-12-28T02:58:57.259Z,87.25
2022-12-28T03:01:53.663Z,87.28
2022-12-28T03:04:30.871Z,87.25
2022-12-28T03:07:35.649Z,87.24
2022-12-28T03:10:23.274Z,87.21
2022-12-28T03:13:01.171Z,87.36
2022-12-28T03:15:36.421Z,87.34
2022-12-28T03:18:31.831Z,87.62
2022-12-28T03:21:23.286Z,87.59
2022-12-28T03:24:13.647Z,87.94
2022-12-28T03:27:07.721Z,87.69
2022-12-28T03:30:06.589Z,87.65
2022-12-28T03:32:36.886Z,87.59
2022-12-28T03:35:06.680Z,87.74
2022-12-28T03:37:43.362Z,87.73
2022-12-28T03:40:33.663Z,87.45
2022-12-28T03:43:29.225Z,87.69
2022-12-28T03:46:05.172Z,87.72
2022-12-28T03:48:37.192Z,87.72
2022-12-28T03:51:08.259Z,87.60
2022-12-28T03:53:42.382Z,87.66
2022-12-28T03:56:15.400Z,87.69
2022-12-28T03:58:45.549Z,87.93
2022-12-28T04:01:15.212Z,87.83
2022-12-28T04:03:44.644Z,87.71
2022-12-28T04:06:16.167Z,87.57
2022-12-28T04:08:45.967Z,87.65
2022-12-28T04:11:14.449Z,87.41
2022-12-28T04:13:44.951Z,87.53
2022-12-28T04:16:16.298Z,87.45
2022-12-28T04:18:44.416Z,87.55
2022-12-28T04:21:14.557Z,87.57
2022-12-28T04:23:49.432Z,87.58
2022-12-28T04:26:25.518Z,87.52
2022-12-28T04:28:54.476Z,87.53
2022-12-28T04:31:23.010Z,87.41
2022-12-28T04:33:59.247Z,87.52
2022-12-28T04:36:27.321Z,87.64
2022-12-28T04:38:56.739Z,87.36
2022-12-28T04:41:25.822Z,87.50
2022-12-28T04:43:56.580Z,87.33
2022-12-28T04:46:25.987Z,87.51
2022-12-28T04:49:24.387Z,87.39
2022-12-28T04:51:52.265Z,87.48
2022-12-28T04:54:19.826Z,87.47
2022-12-28T04:56:47.414Z,87.31
2022-12-28T04:59:15.634Z,87.41
2022-12-28T05:01:43.419Z,87.27
2022-12-28T05:04:11.294Z,87.45
2022-12-28T05:06:40.174Z,87.63
2022-12-28T05:09:10.906Z,87.44
2022-12-28T05:11:38.882Z,87.40
2022-12-28T05:14:07.145Z,87.37
2022-12-28T05:16:36.210Z,87.45
2022-12-28T05:19:03.871Z,87.19
2022-12-28T05:21:31.610Z,87.16
2022-12-28T05:23:59.538Z,87.09
2022-12-28T05:26:29.416Z,87.09
2022-12-28T05:28:58.502Z,87.24
2022-12-28T05:31:27.978Z,87.37
2022-12-28T05:33:55.855Z,87.25
2022-12-28T05:36:26.464Z,87.26
2022-12-28T05:38:56.502Z,87.32
2022-12-28T05:41:28.928Z,87.44
2022-12-28T05:43:59.288Z,87.51
2022-12-28T05:46:31.362Z,87.50
2022-12-28T05:49:25.574Z,87.72
2022-12-28T05:51:54.175Z,87.69
2022-12-28T05:54:22.343Z,87.78
2022-12-28T05:56:52.158Z,87.89
2022-12-28T05:59:20.109Z,87.66
2022-12-28T06:01:47.947Z,87.61
2022-12-28T06:04:18.315Z,87.93
2022-12-28T06:06:47.371Z,87.64
2022-12-28T06:09:16.575Z,87.52
2022-12-28T06:11:44.602Z,87.72
2022-12-28T06:14:13.841Z,87.85
2022-12-28T06:16:43.145Z,87.85
2022-12-28T06:19:22.200Z,87.80
2022-12-28T06:21:50.375Z,87.69
2022-12-28T06:24:19.634Z,87.94
2022-12-28T06:26:47.841Z,87.94
2022-12-28T06:29:16.407Z,87.76
2022-12-28T06:31:50.893Z,87.91
2022-12-28T06:34:18.485Z,87.68
2022-12-28T06:36:51.299Z,87.67
2022-12-28T06:39:19.941Z,87.73
2022-12-28T06:41:47.775Z,87.85
2022-12-28T06:44:15.782Z,87.68
2022-12-28T06:46:43.895Z,87.62
2022-12-28T06:49:14.576Z,87.71
2022-12-28T06:51:42.460Z,88.02
2022-12-28T06:54:11.049Z,87.96
2022-12-28T06:56:38.944Z,87.95
2022-12-28T06:59:07.293Z,87.99
2022-12-28T07:01:41.368Z,88.12
2022-12-28T07:04:10.439Z,88.09
2022-12-28T07:06:43.248Z,88.03
2022-12-28T07:09:14.883Z,88.25
2022-12-28T07:11:44.376Z,88.26
2022-12-28T07:14:12.189Z,88.27
2022-12-28T07:19:08.551Z,88.24
2022-12-28T07:21:38.975Z,88.32
2022-12-28T07:24:08.003Z,88.41
2022-12-28T07:26:38.105Z,88.44
2022-12-28T07:29:08.652Z,88.52
2022-12-28T07:31:44.836Z,88.61
2022-12-28T07:34:16.581Z,88.41
2022-12-28T07:36:44.296Z,88.44
2022-12-28T07:39:12.043Z,88.36
2022-12-28T07:41:41.024Z,88.28
2022-12-28T07:44:10.441Z,88.35
2022-12-28T07:46:41.343Z,88.35
2022-12-28T07:50:23.463Z,88.53
2022-12-28T07:52:51.898Z,88.55
2022-12-28T07:55:20.065Z,88.52
2022-12-28T07:57:51.319Z,88.63
2022-12-28T08:00:19.260Z,88.70
2022-12-28T08:02:49.086Z,88.66
2022-12-28T08:05:18.499Z,88.70
2022-12-28T08:07:46.269Z,88.52
2022-12-28T08:10:14.301Z,88.59
2022-12-28T08:12:44.055Z,88.77
2022-12-28T08:15:13.349Z,88.52
2022-12-28T08:17:40.945Z,88.67
2022-12-28T08:20:10.019Z,88.56
2022-12-28T08:22:40.569Z,88.54
2022-12-28T08:25:08.595Z,88.73
2022-12-28T08:27:38.709Z,88.22
2022-12-28T08:30:07.790Z,88.62
2022-12-28T08:32:35.466Z,88.20
2022-12-28T08:35:06.073Z,88.42
2022-12-28T08:37:33.973Z,88.68
2022-12-28T08:40:03.680Z,88.43
2022-12-28T08:42:33.727Z,88.31
2022-12-28T08:45:03.685Z,88.37
2022-12-28T08:47:34.136Z,88.34
2022-12-28T08:50:01.922Z,88.10
2022-12-28T08:52:29.514Z,88.02
2022-12-28T08:54:58.704Z,87.85
2022-12-28T08:57:26.411Z,88.00
2022-12-28T08:59:57.690Z,87.90
2022-12-28T09:02:25.520Z,87.93
2022-12-28T09:04:53.261Z,87.83
2022-12-28T09:07:20.911Z,87.74
2022-12-28T09:09:53.370Z,87.84
2022-12-28T09:12:21.210Z,88.02
2022-12-28T09:14:50.638Z,88.07
2022-12-28T09:17:20.114Z,88.06
2022-12-28T09:19:47.889Z,88.03
2022-12-28T09:22:19.333Z,88.04
2022-12-28T09:24:48.716Z,88.15
2022-12-28T09:27:19.855Z,88.10
2022-12-28T09:29:48.186Z,88.06
2022-12-28T09:32:19.023Z,88.11
2022-12-28T09:34:46.844Z,88.09
2022-12-28T09:37:16.458Z,88.24
2022-12-28T09:39:44.165Z,88.18
2022-12-28T09:42:23.976Z,88.12
2022-12-28T09:45:02.521Z,88.23
2022-12-28T09:47:45.657Z,88.11
2022-12-28T09:50:16.961Z,88.25
2022-12-28T09:53:08.969Z,88.22
2022-12-28T09:55:41.675Z,88.28
2022-12-28T09:58:19.112Z,87.92
2022-12-28T10:00:50.993Z,88.16
2022-12-28T10:03:41.722Z,88.20
2022-12-28T10:06:14.305Z,88.07
2022-12-28T10:08:47.819Z,88.14
2022-12-28T10:11:25.784Z,88.11
2022-12-28T10:14:00.162Z,88.15
2022-12-28T10:16:32.652Z,88.14
2022-12-28T10:19:01.038Z,88.21
2022-12-28T10:21:33.329Z,88.03
2022-12-28T10:24:30.938Z,88.11
2022-12-28T10:26:55.969Z,88.04
2022-12-28T10:29:26.423Z,87.88
2022-12-28T10:32:05.010Z,87.83
2022-12-28T10:34:50.152Z,87.88
2022-12-28T10:37:20.872Z,87.70
2022-12-28T10:39:59.432Z,87.67
2022-12-28T10:42:41.977Z,87.60
2022-12-28T10:45:39.947Z,87.73
2022-12-28T10:48:38.953Z,87.52
2022-12-28T10:51:18.681Z,87.62
2022-12-28T10:53:50.874Z,87.36
2022-12-28T10:56:29.160Z,87.43
2022-12-28T10:59:16.793Z,87.42
2022-12-28T11:01:46.625Z,87.32
2022-12-28T11:04:20.119Z,87.34
2022-12-28T11:06:55.693Z,87.30
2022-12-28T11:09:32.809Z,87.33
2022-12-28T11:12:24.352Z,87.41
2022-12-28T11:14:54.049Z,87.42
2022-12-28T11:17:25.667Z,87.34
2022-12-28T11:20:21.664Z,87.31
2022-12-28T11:22:50.857Z,87.30
2022-12-28T11:25:29.167Z,87.27
2022-12-28T11:27:58.721Z,87.34
2022-12-28T11:30:28.966Z,87.08
2022-12-28T11:32:59.718Z,87.17
2022-12-28T11:35:34.590Z,87.16
2022-12-28T11:38:06.812Z,87.08
2022-12-28T11:40:43.555Z,87.08
2022-12-28T11:43:30.250Z,86.95
2022-12-28T11:46:29.041Z,86.99
2022-12-28T11:53:44.654Z,86.86
2022-12-28T11:56:16.062Z,86.68
2022-12-28T11:59:10.846Z,86.74
2022-12-28T12:01:40.996Z,86.54
2022-12-28T12:04:18.297Z,86.64
2022-12-28T12:06:48.472Z,86.61
2022-12-28T12:09:25.981Z,86.45
2022-12-28T12:11:59.675Z,86.42
2022-12-28T12:14:42.465Z,86.41
2022-12-28T12:17:43.269Z,86.40
2022-12-28T12:20:28.510Z,86.40
2022-12-28T12:23:08.331Z,86.47
2022-12-28T12:25:53.997Z,86.80
2022-12-28T12:28:47.076Z,86.59
2022-12-28T12:31:37.447Z,85.67
2022-12-28T12:34:49.910Z,85.64
2022-12-28T12:37:45.004Z,85.93
2022-12-28T12:40:32.601Z,85.98
2022-12-28T12:43:12.404Z,86.29
2022-12-28T12:46:17.188Z,86.15
2022-12-28T12:49:03.585Z,86.25
2022-12-28T12:51:42.409Z,86.35
2022-12-28T12:54:52.379Z,86.27
2022-12-28T12:57:36.204Z,86.34
2022-12-28T13:00:16.897Z,86.48
2022-12-28T13:02:51.989Z,86.50
2022-12-28T13:05:26.939Z,86.31
2022-12-28T13:07:58.070Z,86.42
2022-12-28T13:10:45.024Z,86.34
2022-12-28T13:13:41.221Z,86.24
2022-12-28T13:16:12.477Z,86.24
2022-12-28T13:18:58.816Z,86.47
2022-12-28T13:21:30.047Z,86.51
2022-12-28T13:23:58.837Z,86.35
2022-12-28T13:26:29.244Z,86.29
2022-12-28T13:29:01.642Z,86.31
2022-12-28T13:31:35.841Z,86.26
2022-12-28T13:34:18.002Z,86.15
2022-12-28T13:36:56.468Z,86.19
2022-12-28T13:39:26.799Z,86.10
2022-12-28T13:42:00.283Z,86.09
2022-12-28T13:44:33.325Z,86.14
2022-12-28T13:47:11.458Z,86.17
2022-12-28T13:50:15.668Z,86.12
2022-12-28T13:53:02.637Z,86.28
2022-12-28T13:55:40.384Z,86.02
2022-12-28T13:58:23.207Z,86.20
2022-12-28T14:00:53.478Z,86.44
2022-12-28T14:03:23.711Z,86.22
2022-12-28T14:05:59.792Z,86.30
2022-12-28T14:08:29.361Z,86.10
2022-12-28T14:10:59.317Z,86.20
2022-12-28T14:13:30.924Z,86.05
2022-12-28T14:16:02.603Z,85.95
2022-12-28T14:18:36.190Z,86.12
2022-12-28T14:21:07.731Z,86.11
2022-12-28T14:23:39.330Z,86.11
2022-12-28T14:26:18.798Z,86.04
2022-12-28T14:28:50.807Z,85.89
2022-12-28T14:31:24.958Z,85.92
2022-12-28T14:33:56.776Z,86.05
2022-12-28T14:36:39.487Z,86.10
2022-12-28T14:39:26.912Z,85.85
2022-12-28T14:41:59.326Z,85.90
2022-12-28T14:44:32.704Z,86.00
2022-12-28T14:47:23.516Z,85.99
2022-12-28T14:54:26.354Z,86.02
2022-12-28T14:57:18.000Z,86.10
2022-12-28T14:59:56.651Z,86.23
2022-12-28T15:02:40.942Z,86.05
2022-12-28T15:05:36.675Z,86.22
2022-12-28T15:08:05.731Z,86.12
2022-12-28T15:10:55.770Z,85.92
2022-12-28T15:13:27.076Z,85.90
2022-12-28T15:15:58.665Z,85.94
2022-12-28T15:18:29.151Z,85.96
2022-12-28T15:21:02.739Z,86.07
2022-12-28T15:23:32.928Z,86.04
2022-12-28T15:26:10.987Z,85.86
2022-12-28T15:28:41.813Z,86.06
2022-12-28T15:31:13.565Z,85.95
2022-12-28T15:33:42.119Z,86.19
2022-12-28T15:36:17.823Z,86.08
2022-12-28T15:38:47.693Z,86.28
2022-12-28T15:41:36.751Z,86.13
2022-12-28T15:44:06.821Z,86.19
2022-12-28T15:46:34.994Z,86.22
2022-12-28T15:49:29.024Z,86.11
2022-12-28T15:52:00.137Z,86.38
2022-12-28T15:54:29.793Z,86.28
2022-12-28T15:56:57.873Z,86.14
2022-12-28T15:59:31.312Z,86.31
2022-12-28T16:02:00.678Z,86.36
2022-12-28T16:04:31.453Z,86.38
2022-12-28T16:06:59.387Z,86.43
2022-12-28T16:09:30.211Z,86.30
2022-12-28T16:11:59.324Z,86.19
2022-12-28T16:14:28.221Z,86.39
2022-12-28T16:16:56.478Z,86.41
2022-12-28T16:19:27.503Z,86.43
2022-12-28T16:21:55.383Z,86.12
2022-12-28T16:24:23.222Z,86.30
2022-12-28T16:26:51.499Z,86.22
2022-12-28T16:29:27.026Z,86.29
2022-12-28T16:32:01.630Z,86.55
2022-12-28T16:34:31.310Z,86.51
2022-12-28T16:36:59.487Z,86.37
2022-12-28T16:39:29.506Z,86.37
2022-12-28T16:41:58.477Z,86.52
2022-12-28T16:44:27.631Z,86.50
2022-12-28T16:46:58.335Z,86.27
2022-12-28T16:49:55.828Z,86.51
2022-12-28T16:52:24.616Z,86.61
2022-12-28T16:54:52.499Z,86.77
2022-12-28T16:57:20.302Z,86.59
2022-12-28T16:59:49.831Z,86.28
2022-12-28T17:02:18.244Z,86.54
2022-12-28T17:04:48.139Z,86.76
2022-12-28T17:07:16.845Z,86.41
2022-12-28T17:09:50.153Z,86.73
2022-12-28T17:12:18.841Z,86.56
2022-12-28T17:14:48.333Z,86.69
2022-12-28T17:17:19.228Z,86.68
2022-12-28T17:19:47.299Z,86.61
2022-12-28T17:22:15.680Z,86.77
2022-12-28T17:24:45.079Z,86.62
2022-12-28T17:27:18.690Z,86.78
2022-12-28T17:29:50.931Z,86.91
2022-12-28T17:32:18.882Z,86.86
2022-12-28T17:34:46.777Z,86.87
2022-12-28T17:37:15.145Z,86.50
2022-12-28T17:39:43.870Z,87.04
2022-12-28T17:42:16.902Z,86.91
2022-12-28T17:44:51.243Z,86.60
2022-12-28T17:47:19.627Z,86.82
2022-12-28T17:49:48.363Z,87.02
2022-12-28T17:52:21.488Z,86.94
2022-12-28T17:54:52.644Z,86.73
2022-12-28T17:57:25.964Z,86.81
2022-12-28T17:59:55.482Z,86.82
2022-12-28T18:02:27.053Z,86.97
2022-12-28T18:04:57.881Z,87.00
2022-12-28T18:07:28.915Z,86.95
2022-12-28T18:09:59.301Z,86.91
2022-12-28T18:12:29.346Z,86.84
2022-12-28T18:14:57.859Z,86.90
2022-12-28T18:17:26.040Z,87.07
2022-12-28T18:19:56.135Z,86.99
2022-12-28T18:22:25.373Z,87.14
2022-12-28T18:24:55.062Z,87.07
2022-12-28T18:27:26.022Z,87.04
2022-12-28T18:29:58.189Z,87.12
2022-12-28T18:32:28.622Z,87.08
2022-12-28T18:34:59.915Z,87.32
2022-12-28T18:37:28.515Z,87.19
2022-12-28T18:39:57.132Z,87.03
2022-12-28T18:42:30.535Z,86.91
2022-12-28T18:45:00.408Z,87.00
2022-12-28T18:47:32.785Z,87.16
2022-12-28T18:50:57.253Z,87.09
2022-12-28T18:53:28.882Z,87.13
2022-12-28T18:56:02.098Z,87.19
2022-12-28T18:58:33.024Z,87.18
2022-12-28T19:01:25.893Z,87.08
2022-12-28T19:04:04.457Z,87.12
2022-12-28T19:06:34.696Z,87.33
2022-12-28T19:09:07.507Z,87.52
2022-12-28T19:11:40.257Z,87.30
2022-12-28T19:14:14.649Z,87.74
2022-12-28T19:16:46.546Z,87.30
2022-12-28T19:19:17.295Z,87.47
2022-12-28T19:21:50.440Z,87.65
2022-12-28T19:24:23.569Z,87.41
2022-12-28T19:26:53.957Z,87.27
2022-12-28T19:29:24.373Z,87.87
2022-12-28T19:31:55.042Z,87.39
2022-12-28T19:34:27.149Z,87.61
2022-12-28T19:36:58.805Z,87.62
2022-12-28T19:39:28.569Z,87.83
2022-12-28T19:41:58.995Z,87.82
2022-12-28T19:44:31.545Z,87.87
2022-12-28T19:47:03.161Z,87.86
2022-12-28T19:49:34.426Z,87.98
2022-12-28T19:52:08.358Z,87.91
2022-12-28T19:54:39.563Z,87.86
2022-12-28T19:57:08.747Z,87.94
2022-12-28T19:59:41.230Z,88.00
2022-12-28T20:02:11.993Z,88.09
2022-12-28T20:04:44.560Z,87.99
2022-12-28T20:07:15.591Z,88.26
2022-12-28T20:09:44.710Z,88.28
2022-12-28T20:12:15.161Z,88.11
2022-12-28T20:14:47.318Z,88.05
2022-12-28T20:17:18.372Z,88.25
2022-12-28T20:19:48.999Z,88.48
2022-12-28T20:22:21.612Z,88.26
2022-12-28T20:24:50.403Z,88.43
2022-12-28T20:27:20.924Z,88.59
2022-12-28T20:29:51.253Z,88.37
2022-12-28T20:32:19.044Z,88.41
2022-12-28T20:34:49.153Z,88.49
2022-12-28T20:37:17.570Z,88.64
2022-12-28T20:39:48.142Z,88.70
2022-12-28T20:42:35.586Z,88.40
2022-12-28T20:45:05.644Z,88.54
2022-12-28T20:47:33.817Z,88.66
2022-12-28T20:50:57.867Z,88.57
2022-12-28T20:53:29.746Z,88.42
2022-12-28T20:56:09.105Z,88.57
2022-12-28T20:58:39.808Z,88.76
2022-12-28T21:01:11.615Z,88.57
2022-12-28T21:03:43.114Z,88.68
2022-12-28T21:06:13.349Z,88.49
2022-12-28T21:08:42.680Z,88.67
2022-12-28T21:11:14.661Z,88.63
2022-12-28T21:13:45.157Z,88.70
2022-12-28T21:16:15.256Z,88.72
2022-12-28T21:18:44.098Z,88.63
2022-12-28T21:21:19.208Z,88.65
2022-12-28T21:23:47.827Z,88.64
2022-12-28T21:26:20.256Z,88.69
2022-12-28T21:28:49.717Z,88.53
2022-12-28T21:31:21.587Z,88.83
2022-12-28T21:33:55.254Z,88.63
2022-12-28T21:36:24.343Z,88.68
2022-12-28T21:38:56.153Z,88.60
2022-12-28T21:41:44.245Z,88.81
2022-12-28T21:44:15.862Z,88.63
2022-12-28T21:46:45.462Z,88.77
2022-12-28T21:49:15.410Z,88.80
2022-12-28T21:51:43.759Z,88.92
2022-12-28T21:54:20.592Z,88.83
2022-12-28T21:56:54.201Z,88.69
2022-12-28T21:59:25.109Z,88.78
2022-12-28T22:06:12.918Z,88.53
2022-12-28T22:09:05.370Z,88.60
2022-12-28T22:11:53.930Z,88.66
2022-12-28T22:14:21.595Z,88.91
2022-12-28T22:16:49.498Z,88.75
2022-12-28T22:19:17.433Z,88.88
2022-12-28T22:21:47.029Z,89.04
2022-12-28T22:24:14.726Z,89.00
2022-12-28T22:26:42.900Z,88.79
2022-12-28T22:29:12.037Z,88.91
2022-12-28T22:31:41.292Z,88.94
2022-12-28T22:34:09.278Z,88.96
2022-12-28T22:36:37.034Z,89.00
2022-12-28T22:39:05.087Z,88.86
2022-12-28T22:41:34.921Z,88.83
2022-12-28T22:44:03.577Z,89.01
2022-12-28T22:46:31.883Z,88.83
2022-12-28T22:49:51.433Z,89.08
2022-12-28T22:52:20.183Z,88.83
2022-12-28T22:54:51.483Z,88.97
2022-12-28T22:57:19.762Z,89.01
2022-12-28T22:59:48.378Z,88.77
2022-12-28T23:02:16.375Z,89.11
2022-12-28T23:04:46.220Z,88.90
2022-12-28T23:07:15.532Z,88.86
2022-12-28T23:09:45.548Z,88.81
2022-12-28T23:12:15.559Z,88.99
2022-12-28T23:15:02.322Z,89.06
2022-12-28T23:17:30.497Z,88.98
2022-12-28T23:20:17.082Z,88.92
2022-12-28T23:23:03.333Z,88.80
2022-12-28T23:25:50.167Z,88.86
2022-12-28T23:28:18.340Z,88.79
2022-12-28T23:30:48.356Z,88.85
2022-12-28T23:33:18.177Z,88.54
2022-12-28T23:35:46.017Z,88.73
2022-12-28T23:38:13.753Z,88.58
2022-12-28T23:40:44.395Z,88.97
2022-12-28T23:43:12.063Z,88.98
2022-12-28T23:45:43.366Z,88.80
2022-12-28T23:52:46.371Z,88.88
2022-12-28T23:55:16.593Z,88.73
2022-12-28T23:57:44.534Z,88.84
